createdAt,value
2017-12-06T00:01:17.570Z,72.16
2017-12-06T00:03:45.899Z,72.36
2017-12-06T00:06:14.270Z,72.50
2017-12-06T00:08:42.599Z,72.16
2017-12-06T00:11:10.926Z,71.96
2017-12-06T00:16:44.933Z,71.76
2017-12-06T00:19:13.695Z,71.33
2017-12-06T00:21:42.098Z,71.59
2017-12-06T00:24:10.821Z,71.69
2017-12-06T00:26:39.174Z,71.68
2017-12-06T00:29:07.514Z,71.92
2017-12-06T00:31:35.894Z,71.49
2017-12-06T00:34:04.222Z,71.74
2017-12-06T00:36:32.982Z,71.96
2017-12-06T00:39:01.314Z,71.18
2017-12-06T00:41:30.438Z,71.10
2017-12-06T00:43:58.762Z,71.26
2017-12-06T00:46:27.146Z,70.63
2017-12-06T00:48:56.250Z,70.78
2017-12-06T00:51:25.378Z,71.14
2017-12-06T00:53:53.706Z,71.24
2017-12-06T00:56:22.818Z,71.52
2017-12-06T00:58:51.970Z,71.54
2017-12-06T01:01:20.287Z,71.72
2017-12-06T01:03:49.429Z,71.68
2017-12-06T01:06:17.783Z,71.47
2017-12-06T01:08:46.118Z,71.44
2017-12-06T01:11:14.480Z,71.98
2017-12-06T01:13:43.761Z,72.32
2017-12-06T01:16:12.098Z,72.30
2017-12-06T01:18:41.253Z,72.08
2017-12-06T01:21:09.606Z,72.21
2017-12-06T01:23:37.931Z,72.45
2017-12-06T01:26:06.301Z,72.04
2017-12-06T01:28:34.645Z,72.42
2017-12-06T01:31:02.984Z,72.76
2017-12-06T01:33:32.099Z,72.69
2017-12-06T01:36:00.843Z,72.50
2017-12-06T01:38:29.212Z,72.22
2017-12-06T01:40:57.578Z,72.40
2017-12-06T01:43:25.938Z,72.37
2017-12-06T01:45:54.265Z,72.49
2017-12-06T01:48:23.365Z,71.87
2017-12-06T01:50:51.755Z,71.72
2017-12-06T01:53:20.841Z,71.72
2017-12-06T01:55:49.989Z,71.53
2017-12-06T01:58:18.318Z,71.10
2017-12-06T02:00:47.069Z,71.34
2017-12-06T02:03:15.405Z,71.74
2017-12-06T02:05:44.329Z,71.87
2017-12-06T02:08:13.501Z,71.83
2017-12-06T02:10:42.254Z,71.60
2017-12-06T02:13:11.441Z,71.54
2017-12-06T02:15:39.825Z,71.57
2017-12-06T02:18:08.945Z,72.00
2017-12-06T02:20:37.335Z,71.63
2017-12-06T02:23:05.681Z,71.48
2017-12-06T02:25:35.548Z,71.69
2017-12-06T02:28:03.921Z,71.66
2017-12-06T02:30:32.253Z,71.61
2017-12-06T02:33:01.397Z,71.41
2017-12-06T02:35:29.764Z,71.61
2017-12-06T02:37:58.089Z,71.81
2017-12-06T02:40:44.213Z,71.89
2017-12-06T02:43:30.080Z,71.70
2017-12-06T02:45:58.452Z,71.62
2017-12-06T02:48:26.769Z,71.90
2017-12-06T02:50:55.873Z,72.47
2017-12-06T02:53:24.235Z,72.61
2017-12-06T02:55:52.620Z,72.10
2017-12-06T02:58:20.953Z,71.82
2017-12-06T03:00:49.329Z,71.34
2017-12-06T03:03:18.437Z,71.55
2017-12-06T03:05:46.794Z,71.31
2017-12-06T03:08:15.156Z,71.61
2017-12-06T03:10:43.529Z,71.41
2017-12-06T03:13:11.865Z,71.43
2017-12-06T03:15:41.000Z,71.44
2017-12-06T03:18:09.729Z,71.59
2017-12-06T03:20:38.061Z,71.04
2017-12-06T03:23:06.421Z,70.94
2017-12-06T03:25:34.742Z,71.20
2017-12-06T03:28:03.148Z,71.42
2017-12-06T03:30:31.497Z,71.58
2017-12-06T03:33:00.778Z,71.72
2017-12-06T03:35:29.132Z,71.80
2017-12-06T03:37:57.448Z,71.53
2017-12-06T03:40:25.827Z,71.80
2017-12-06T03:42:54.198Z,72.05
2017-12-06T03:45:22.529Z,72.27
2017-12-06T03:47:50.838Z,72.66
2017-12-06T03:50:19.209Z,72.51
2017-12-06T03:52:47.541Z,72.88
2017-12-06T03:55:17.412Z,73.02
2017-12-06T03:57:45.744Z,73.28
2017-12-06T04:00:14.876Z,73.03
2017-12-06T04:02:43.236Z,73.48
2017-12-06T04:05:11.592Z,73.76
2017-12-06T04:07:41.464Z,73.78
2017-12-06T04:10:09.835Z,73.80
2017-12-06T04:12:38.164Z,73.74
2017-12-06T04:15:07.319Z,73.58
2017-12-06T04:17:35.684Z,73.97
2017-12-06T04:20:04.020Z,73.68
2017-12-06T04:22:32.780Z,73.62
2017-12-06T04:25:01.112Z,73.64
2017-12-06T04:27:29.466Z,73.32
2017-12-06T04:29:58.212Z,73.46
2017-12-06T04:32:26.969Z,73.37
2017-12-06T04:34:55.308Z,73.44
2017-12-06T04:37:23.679Z,73.33
2017-12-06T04:39:52.007Z,73.39
2017-12-06T04:42:21.134Z,73.43
2017-12-06T04:44:49.596Z,72.87
2017-12-06T04:47:18.396Z,72.94
2017-12-06T04:49:47.528Z,73.05
2017-12-06T04:52:15.880Z,73.22
2017-12-06T04:54:44.252Z,73.23
2017-12-06T04:57:12.584Z,73.21
2017-12-06T04:59:41.351Z,73.14
2017-12-06T05:02:09.852Z,73.13
2017-12-06T05:04:38.187Z,72.58
2017-12-06T05:07:07.280Z,72.80
2017-12-06T05:09:36.435Z,72.46
2017-12-06T05:12:05.156Z,72.47
2017-12-06T05:14:34.368Z,72.69
2017-12-06T05:17:03.883Z,72.95
2017-12-06T05:19:33.080Z,73.12
2017-12-06T05:22:01.844Z,72.83
2017-12-06T05:24:30.289Z,72.73
2017-12-06T05:26:58.636Z,72.83
2017-12-06T05:29:26.953Z,72.33
2017-12-06T05:31:56.068Z,72.20
2017-12-06T05:34:24.391Z,71.82
2017-12-06T05:36:52.775Z,72.14
2017-12-06T05:39:21.143Z,72.16
2017-12-06T05:41:49.476Z,72.36
2017-12-06T05:44:18.595Z,72.17
2017-12-06T05:46:47.352Z,72.25
2017-12-06T05:49:16.103Z,72.33
2017-12-06T05:51:44.467Z,71.94
2017-12-06T05:54:12.831Z,71.85
2017-12-06T05:56:41.167Z,71.37
2017-12-06T05:59:09.539Z,71.48
2017-12-06T06:01:37.943Z,71.63
2017-12-06T06:04:06.314Z,71.46
2017-12-06T06:06:34.683Z,72.06
2017-12-06T06:09:03.057Z,71.90
2017-12-06T06:11:31.427Z,71.70
2017-12-06T06:14:00.531Z,71.67
2017-12-06T06:16:28.862Z,71.56
2017-12-06T06:18:57.223Z,71.70
2017-12-06T06:21:26.419Z,71.87
2017-12-06T06:23:55.653Z,71.90
2017-12-06T06:26:24.017Z,71.78
2017-12-06T06:28:52.375Z,72.07
2017-12-06T06:31:21.519Z,71.94
2017-12-06T06:33:49.852Z,71.84
2017-12-06T06:36:18.958Z,71.84
2017-12-06T06:38:47.331Z,71.65
2017-12-06T06:41:16.060Z,71.59
2017-12-06T06:43:44.421Z,71.59
2017-12-06T06:46:14.493Z,71.51
2017-12-06T06:48:43.631Z,71.02
2017-12-06T06:51:11.959Z,71.00
2017-12-06T06:53:41.669Z,71.24
2017-12-06T06:56:10.831Z,71.77
2017-12-06T06:58:39.159Z,71.02
2017-12-06T07:01:08.876Z,71.06
2017-12-06T07:03:37.223Z,70.97
2017-12-06T07:06:06.023Z,71.09
2017-12-06T07:08:35.822Z,71.16
2017-12-06T07:11:04.192Z,71.01
2017-12-06T07:13:33.280Z,71.21
2017-12-06T07:16:02.011Z,71.10
2017-12-06T07:18:30.380Z,71.08
2017-12-06T07:20:58.756Z,71.42
2017-12-06T07:23:27.511Z,71.10
2017-12-06T07:25:55.861Z,70.86
2017-12-06T07:28:24.211Z,71.14
2017-12-06T07:30:52.567Z,70.67
2017-12-06T07:33:21.283Z,70.45
2017-12-06T07:35:49.656Z,70.68
2017-12-06T07:38:18.019Z,70.66
2017-12-06T07:40:47.119Z,70.00
2017-12-06T07:43:15.506Z,70.03
2017-12-06T07:45:44.631Z,70.17
2017-12-06T07:48:14.128Z,70.19
2017-12-06T07:50:42.460Z,69.71
2017-12-06T07:53:11.243Z,70.45
2017-12-06T07:55:39.631Z,70.37
2017-12-06T07:58:08.739Z,70.50
2017-12-06T08:00:37.895Z,69.88
2017-12-06T08:03:06.248Z,70.37
2017-12-06T08:05:34.567Z,69.67
2017-12-06T08:08:02.943Z,69.44
2017-12-06T08:10:31.267Z,69.15
2017-12-06T08:12:59.623Z,69.10
2017-12-06T08:15:27.955Z,69.47
2017-12-06T08:17:56.750Z,69.36
2017-12-06T08:20:25.082Z,69.21
2017-12-06T08:22:53.443Z,69.41
2017-12-06T08:25:21.831Z,69.46
2017-12-06T08:27:50.216Z,68.96
2017-12-06T08:30:18.586Z,69.23
2017-12-06T08:32:46.911Z,68.63
2017-12-06T08:35:15.247Z,68.48
2017-12-06T08:37:43.594Z,68.55
2017-12-06T08:40:13.463Z,67.89
2017-12-06T08:42:41.835Z,67.51
2017-12-06T08:45:10.158Z,67.38
2017-12-06T08:47:39.639Z,67.94
2017-12-06T08:50:08.028Z,68.16
2017-12-06T08:52:37.143Z,68.51
2017-12-06T08:55:06.255Z,68.44
2017-12-06T08:57:34.590Z,67.16
2017-12-06T09:00:05.379Z,67.20
2017-12-06T09:02:33.708Z,67.29
2017-12-06T09:05:02.076Z,67.71
2017-12-06T09:07:30.444Z,67.73
2017-12-06T09:09:59.168Z,67.66
2017-12-06T09:12:28.311Z,67.48
2017-12-06T09:14:56.645Z,67.46
2017-12-06T09:17:25.002Z,67.26
2017-12-06T09:19:53.794Z,67.98
2017-12-06T09:22:22.578Z,67.71
2017-12-06T09:24:51.302Z,67.66
2017-12-06T09:27:19.658Z,67.62
2017-12-06T09:29:49.138Z,67.87
2017-12-06T09:32:17.486Z,67.86
2017-12-06T09:34:45.859Z,67.90
2017-12-06T09:37:14.574Z,67.80
2017-12-06T09:39:42.946Z,67.67
2017-12-06T09:42:12.614Z,67.59
2017-12-06T09:44:40.942Z,66.92
2017-12-06T09:47:09.314Z,67.37
2017-12-06T09:49:37.634Z,66.81
2017-12-06T09:52:06.722Z,66.92
2017-12-06T09:54:35.838Z,66.82
2017-12-06T09:57:04.159Z,67.16
2017-12-06T09:59:32.531Z,67.59
2017-12-06T10:02:00.887Z,66.98
2017-12-06T10:04:30.593Z,67.06
2017-12-06T10:06:58.974Z,66.85
2017-12-06T10:09:27.317Z,67.02
2017-12-06T10:11:56.830Z,66.33
2017-12-06T10:14:25.946Z,67.11
2017-12-06T10:16:54.299Z,67.43
2017-12-06T10:19:24.139Z,66.73
2017-12-06T10:21:52.498Z,67.17
2017-12-06T10:24:20.870Z,66.41
2017-12-06T10:26:49.965Z,66.91
2017-12-06T10:29:19.090Z,66.48
2017-12-06T10:31:47.441Z,66.81
2017-12-06T10:34:15.773Z,66.81
2017-12-06T10:36:45.489Z,66.32
2017-12-06T10:39:13.825Z,66.41
2017-12-06T10:41:42.226Z,66.72
2017-12-06T10:44:10.587Z,66.39
2017-12-06T10:46:38.970Z,66.60
2017-12-06T10:49:07.301Z,66.61
2017-12-06T10:51:36.450Z,66.81
2017-12-06T10:54:04.785Z,66.47
2017-12-06T10:56:33.893Z,66.08
2017-12-06T10:59:02.214Z,66.47
2017-12-06T11:01:31.330Z,66.21
2017-12-06T11:03:59.713Z,66.39
2017-12-06T11:06:28.077Z,66.32
2017-12-06T11:08:56.455Z,65.57
2017-12-06T11:11:24.917Z,65.68
2017-12-06T11:13:53.301Z,66.10
2017-12-06T11:16:21.694Z,65.95
2017-12-06T11:18:51.190Z,66.26
2017-12-06T11:21:19.539Z,66.31
2017-12-06T11:23:48.341Z,66.42
2017-12-06T11:26:16.713Z,66.50
2017-12-06T11:28:46.448Z,67.18
2017-12-06T11:31:14.829Z,67.09
2017-12-06T11:33:43.153Z,66.86
2017-12-06T11:36:12.253Z,66.71
2017-12-06T11:38:40.625Z,66.79
2017-12-06T11:41:08.957Z,66.83
2017-12-06T11:43:37.313Z,66.85
2017-12-06T11:46:05.685Z,66.26
2017-12-06T11:48:34.097Z,66.61
2017-12-06T11:51:02.465Z,66.35
2017-12-06T11:53:31.965Z,67.21
2017-12-06T11:56:00.397Z,67.13
2017-12-06T11:58:28.733Z,67.05
2017-12-06T12:00:57.077Z,67.12
2017-12-06T12:03:25.449Z,66.14
2017-12-06T12:05:53.817Z,66.79
2017-12-06T12:08:22.365Z,67.60
2017-12-06T12:10:51.265Z,67.21
2017-12-06T12:13:19.661Z,66.93
2017-12-06T12:15:48.061Z,66.51
2017-12-06T12:18:17.956Z,66.42
2017-12-06T12:20:46.324Z,66.48
2017-12-06T12:23:15.120Z,66.52
2017-12-06T12:25:43.615Z,66.13
2017-12-06T12:28:12.813Z,66.37
2017-12-06T12:30:41.300Z,66.59
2017-12-06T12:33:09.665Z,66.12
2017-12-06T12:35:38.136Z,65.99
2017-12-06T12:38:06.548Z,66.00
2017-12-06T12:40:35.441Z,66.54
2017-12-06T12:43:05.391Z,66.88
2017-12-06T12:45:34.586Z,66.86
2017-12-06T12:48:03.688Z,66.93
2017-12-06T12:50:32.160Z,66.79
2017-12-06T12:53:01.461Z,66.12
2017-12-06T12:55:31.641Z,66.46
2017-12-06T12:58:00.152Z,66.84
2017-12-06T13:00:29.304Z,66.62
2017-12-06T13:02:57.760Z,66.50
2017-12-06T13:05:26.245Z,66.84
2017-12-06T13:07:55.148Z,66.94
2017-12-06T13:10:24.628Z,67.44
2017-12-06T13:12:54.508Z,67.25
2017-12-06T13:15:23.028Z,67.09
2017-12-06T13:17:52.882Z,66.64
2017-12-06T13:20:21.344Z,66.91
2017-12-06T13:22:50.157Z,67.32
2017-12-06T13:25:18.960Z,66.63
2017-12-06T13:27:47.452Z,67.26
2017-12-06T13:30:15.952Z,67.26
2017-12-06T13:32:45.117Z,67.30
2017-12-06T13:35:13.480Z,67.56
2017-12-06T13:37:42.728Z,67.56
2017-12-06T13:40:11.112Z,67.28
2017-12-06T13:42:42.256Z,67.37
2017-12-06T13:45:11.152Z,67.29
2017-12-06T13:47:39.654Z,67.11
2017-12-06T13:50:08.028Z,67.21
2017-12-06T13:52:37.296Z,66.98
2017-12-06T13:55:05.795Z,67.12
2017-12-06T13:57:34.248Z,67.07
2017-12-06T14:00:02.671Z,67.06
2017-12-06T14:02:31.150Z,67.41
2017-12-06T14:05:00.047Z,67.41
2017-12-06T14:07:28.555Z,67.32
2017-12-06T14:09:57.520Z,67.11
2017-12-06T14:12:27.201Z,67.63
2017-12-06T14:14:55.647Z,67.35
2017-12-06T14:17:24.490Z,67.36
2017-12-06T14:19:52.935Z,67.29
2017-12-06T14:22:22.964Z,67.32
2017-12-06T14:24:51.359Z,67.73
2017-12-06T14:27:21.959Z,67.77
2017-12-06T14:29:51.225Z,67.71
2017-12-06T14:32:20.529Z,67.96
2017-12-06T14:34:49.491Z,68.42
2017-12-06T14:37:18.673Z,67.70
2017-12-06T14:39:47.079Z,67.65
2017-12-06T14:42:15.537Z,67.61
2017-12-06T14:44:44.327Z,67.55
2017-12-06T14:47:13.959Z,67.59
2017-12-06T14:49:42.440Z,67.79
2017-12-06T14:52:10.856Z,68.14
2017-12-06T14:54:40.831Z,68.15
2017-12-06T14:57:10.056Z,68.13
2017-12-06T14:59:39.204Z,68.27
2017-12-06T15:02:07.571Z,68.01
2017-12-06T15:04:35.941Z,68.03
2017-12-06T15:07:05.751Z,68.39
2017-12-06T15:09:34.911Z,68.82
2017-12-06T15:12:03.369Z,68.19
2017-12-06T15:14:33.122Z,68.35
2017-12-06T15:17:02.819Z,68.61
2017-12-06T15:19:31.351Z,68.53
2017-12-06T15:22:00.523Z,68.30
2017-12-06T15:24:29.067Z,68.53
2017-12-06T15:26:57.663Z,68.61
2017-12-06T15:29:26.101Z,68.60
2017-12-06T15:31:58.263Z,68.53
2017-12-06T15:34:27.560Z,68.45
2017-12-06T15:36:55.943Z,68.37
2017-12-06T15:39:24.295Z,68.66
2017-12-06T15:41:53.866Z,68.74
2017-12-06T15:44:22.270Z,68.99
2017-12-06T15:46:52.022Z,68.82
2017-12-06T15:49:22.015Z,68.72
2017-12-06T15:51:50.843Z,68.66
2017-12-06T15:54:19.199Z,68.95
2017-12-06T15:56:48.318Z,69.08
2017-12-06T15:59:17.203Z,69.36
2017-12-06T16:01:45.567Z,69.33
2017-12-06T16:04:13.947Z,69.06
2017-12-06T16:06:43.494Z,69.01
2017-12-06T16:09:11.903Z,69.15
2017-12-06T16:11:41.430Z,69.24
2017-12-06T16:14:10.947Z,69.39
2017-12-06T16:16:40.062Z,69.48
2017-12-06T16:19:08.458Z,69.49
2017-12-06T16:21:36.792Z,69.72
2017-12-06T16:24:06.751Z,69.34
2017-12-06T16:26:36.715Z,69.34
2017-12-06T16:29:05.536Z,69.56
2017-12-06T16:31:36.307Z,69.67
2017-12-06T16:34:06.143Z,69.40
2017-12-06T16:36:52.234Z,69.37
2017-12-06T16:39:21.416Z,69.57
2017-12-06T16:41:49.811Z,69.18
2017-12-06T16:44:18.879Z,69.53
2017-12-06T16:46:48.007Z,69.26
2017-12-06T16:49:16.411Z,69.28
2017-12-06T16:51:44.819Z,69.54
2017-12-06T16:54:13.174Z,69.80
2017-12-06T16:56:41.578Z,70.03
2017-12-06T16:59:10.694Z,70.19
2017-12-06T17:01:39.818Z,70.06
2017-12-06T17:04:08.205Z,69.24
2017-12-06T17:06:36.655Z,69.60
2017-12-06T17:09:05.087Z,69.70
2017-12-06T17:11:33.414Z,69.71
2017-12-06T17:14:02.187Z,70.00
2017-12-06T17:16:30.635Z,69.80
2017-12-06T17:18:58.978Z,69.25
2017-12-06T17:21:27.770Z,68.80
2017-12-06T17:23:56.198Z,69.01
2017-12-06T17:26:24.966Z,69.11
2017-12-06T17:29:10.982Z,69.05
2017-12-06T17:31:45.414Z,69.32
2017-12-06T17:34:14.799Z,69.53
2017-12-06T17:36:47.770Z,69.71
2017-12-06T17:39:16.550Z,69.64
2017-12-06T17:41:44.970Z,69.12
2017-12-06T17:44:13.423Z,69.17
2017-12-06T17:46:43.286Z,69.39
2017-12-06T17:49:12.794Z,69.39
2017-12-06T17:51:41.147Z,69.06
2017-12-06T17:54:10.882Z,69.07
2017-12-06T17:56:39.225Z,69.22
2017-12-06T17:59:08.367Z,69.46
2017-12-06T18:01:36.884Z,69.10
2017-12-06T18:04:06.208Z,69.06
2017-12-06T18:06:35.671Z,69.20
2017-12-06T18:09:04.110Z,69.20
2017-12-06T18:11:32.674Z,69.06
2017-12-06T18:14:01.072Z,68.99
2017-12-06T18:16:29.442Z,68.91
2017-12-06T18:18:58.675Z,68.67
2017-12-06T18:21:27.458Z,68.46
2017-12-06T18:23:55.900Z,68.96
2017-12-06T18:26:25.287Z,69.01
2017-12-06T18:28:55.393Z,68.55
2017-12-06T18:31:24.556Z,68.45
2017-12-06T18:33:54.219Z,68.16
2017-12-06T18:36:23.452Z,68.46
2017-12-06T18:38:52.990Z,68.33
2017-12-06T18:41:21.327Z,68.47
2017-12-06T18:43:51.906Z,68.12
2017-12-06T18:46:21.302Z,68.27
2017-12-06T18:48:49.710Z,68.26
2017-12-06T18:51:19.771Z,68.16
2017-12-06T18:53:48.082Z,68.31
2017-12-06T18:56:16.522Z,68.44
2017-12-06T18:58:44.898Z,68.51
2017-12-06T19:01:14.086Z,68.41
2017-12-06T19:03:43.412Z,68.24
2017-12-06T19:06:12.287Z,68.38
2017-12-06T19:08:41.398Z,68.87
2017-12-06T19:11:10.126Z,68.23
2017-12-06T19:13:40.216Z,68.37
2017-12-06T19:16:09.601Z,67.36
2017-12-06T19:18:38.593Z,67.27
2017-12-06T19:21:07.814Z,68.02
2017-12-06T19:23:37.125Z,68.39
2017-12-06T19:26:06.406Z,68.11
2017-12-06T19:28:35.695Z,67.41
2017-12-06T19:31:06.321Z,68.21
2017-12-06T19:33:35.714Z,67.59
2017-12-06T19:36:04.067Z,67.64
2017-12-06T19:38:32.477Z,67.06
2017-12-06T19:41:01.812Z,67.24
2017-12-06T19:43:31.381Z,66.99
2017-12-06T19:46:00.854Z,67.13
2017-12-06T19:48:30.791Z,66.55
2017-12-06T19:51:00.994Z,66.50
2017-12-06T19:53:30.674Z,67.00
2017-12-06T19:56:00.732Z,67.18
2017-12-06T19:58:31.073Z,67.40
2017-12-06T20:00:59.597Z,67.27
2017-12-06T20:03:29.411Z,67.55
2017-12-06T20:05:58.943Z,67.27
2017-12-06T20:08:28.935Z,66.94
2017-12-06T20:10:58.322Z,66.71
2017-12-06T20:13:27.863Z,66.87
2017-12-06T20:15:56.720Z,66.41
2017-12-06T20:18:26.468Z,67.39
2017-12-06T20:20:55.637Z,67.59
2017-12-06T20:23:24.089Z,67.68
2017-12-06T20:25:54.027Z,67.53
2017-12-06T20:28:23.175Z,67.35
2017-12-06T20:30:51.571Z,67.00
2017-12-06T20:33:20.501Z,66.99
2017-12-06T20:35:50.178Z,67.15
2017-12-06T20:38:19.726Z,66.26
2017-12-06T20:40:50.134Z,66.73
2017-12-06T20:43:18.591Z,66.62
2017-12-06T20:45:47.458Z,66.60
2017-12-06T20:48:16.618Z,67.03
2017-12-06T20:50:45.770Z,66.16
2017-12-06T20:53:14.186Z,66.63
2017-12-06T20:55:43.679Z,66.34
2017-12-06T20:58:13.162Z,66.47
2017-12-06T21:00:41.539Z,66.77
2017-12-06T21:03:11.346Z,67.01
2017-12-06T21:05:40.449Z,66.68
2017-12-06T21:08:11.738Z,66.75
2017-12-06T21:10:40.706Z,67.06
2017-12-06T21:13:09.896Z,66.90
2017-12-06T21:15:39.285Z,66.10
2017-12-06T21:18:07.729Z,66.65
2017-12-06T21:20:36.173Z,66.46
2017-12-06T21:23:05.833Z,66.25
2017-12-06T21:25:35.266Z,66.00
2017-12-06T21:28:03.628Z,65.62
2017-12-06T21:30:31.994Z,65.46
2017-12-06T21:33:00.637Z,65.12
2017-12-06T21:35:29.797Z,65.21
2017-12-06T21:37:58.141Z,65.34
2017-12-06T21:40:26.629Z,65.88
2017-12-06T21:42:55.132Z,66.22
2017-12-06T21:45:23.516Z,66.16
2017-12-06T21:47:51.916Z,66.12
2017-12-06T21:50:21.180Z,65.61
2017-12-06T21:52:51.924Z,66.03
2017-12-06T21:55:20.320Z,66.14
2017-12-06T21:57:49.648Z,66.53
2017-12-06T22:00:45.474Z,66.33
2017-12-06T22:03:14.148Z,66.04
2017-12-06T22:05:42.540Z,65.91
2017-12-06T22:08:12.541Z,65.81
2017-12-06T22:10:42.769Z,66.02
2017-12-06T22:13:11.176Z,66.14
2017-12-06T22:15:39.592Z,66.02
2017-12-06T22:18:08.728Z,65.90
2017-12-06T22:20:37.169Z,66.07
2017-12-06T22:23:05.538Z,66.14
2017-12-06T22:25:34.561Z,65.66
2017-12-06T22:28:03.324Z,65.71
2017-12-06T22:30:33.153Z,65.95
2017-12-06T22:33:02.349Z,65.92
2017-12-06T22:35:30.712Z,65.26
2017-12-06T22:37:59.116Z,65.26
2017-12-06T22:40:29.333Z,65.70
2017-12-06T22:42:58.472Z,65.67
2017-12-06T22:45:27.203Z,66.03
2017-12-06T22:47:55.618Z,65.84
2017-12-06T22:53:24.164Z,65.66
2017-12-06T22:55:53.996Z,65.17
2017-12-06T22:58:23.864Z,65.96
2017-12-06T23:00:52.232Z,65.68
2017-12-06T23:03:20.613Z,65.67
2017-12-06T23:05:50.519Z,65.94
2017-12-06T23:08:19.604Z,65.73
2017-12-06T23:10:48.075Z,65.30
2017-12-06T23:13:17.194Z,66.33
2017-12-06T23:15:45.553Z,66.33
2017-12-06T23:18:13.896Z,65.97
2017-12-06T23:20:42.349Z,66.34
2017-12-06T23:23:11.065Z,66.28
2017-12-06T23:25:39.413Z,66.29
2017-12-06T23:28:08.872Z,66.27
2017-12-06T23:30:37.232Z,66.31
2017-12-06T23:33:06.402Z,66.45
2017-12-06T23:35:34.763Z,66.13
2017-12-06T23:38:03.097Z,66.17
2017-12-06T23:40:31.464Z,66.19
2017-12-06T23:43:00.607Z,66.19
2017-12-06T23:45:28.979Z,66.28
2017-12-06T23:47:58.111Z,66.39
2017-12-06T23:50:26.423Z,66.38
2017-12-06T23:52:55.535Z,66.41
2017-12-06T23:55:23.875Z,66.50
2017-12-06T23:57:52.203Z,66.72
